createdAt,value
2022-10-10T00:01:41.180Z,8.27
2022-10-10T00:06:45.556Z,8.20
2022-10-10T00:11:48.414Z,8.13
2022-10-10T00:16:51.173Z,8.12
2022-10-10T00:21:55.102Z,8.10
2022-10-10T00:26:57.957Z,8.12
2022-10-10T00:32:00.760Z,8.11
2022-10-10T00:37:04.704Z,8.05
2022-10-10T00:42:07.630Z,8.04
2022-10-10T00:47:11.011Z,8.04
2022-10-10T00:52:15.153Z,8.04
2022-10-10T00:57:17.957Z,8.03
2022-10-10T01:02:20.573Z,7.94
2022-10-10T01:07:28.576Z,7.92
2022-10-10T01:12:39.036Z,7.83
2022-10-10T01:17:47.139Z,7.76
2022-10-10T01:23:03.718Z,7.68
2022-10-10T01:28:20.829Z,7.62
2022-10-10T01:33:30.438Z,7.62
2022-10-10T01:38:39.539Z,7.51
2022-10-10T01:43:43.731Z,7.49
2022-10-10T01:48:50.174Z,7.44
2022-10-10T01:54:02.164Z,7.43
2022-10-10T01:59:16.062Z,7.42
2022-10-10T02:04:24.013Z,7.43
2022-10-10T02:09:32.527Z,7.44
2022-10-10T02:14:42.002Z,7.47
2022-10-10T02:19:49.598Z,7.56
2022-10-10T02:24:53.815Z,7.58
2022-10-10T02:30:00.366Z,7.66
2022-10-10T02:35:09.276Z,7.64
2022-10-10T02:40:15.878Z,7.80
2022-10-10T02:45:21.016Z,7.92
2022-10-10T02:50:24.481Z,7.98
2022-10-10T02:55:27.881Z,7.98
2022-10-10T03:00:32.064Z,7.98
2022-10-10T03:05:34.903Z,7.99
2022-10-10T03:10:38.313Z,7.98
2022-10-10T03:15:42.486Z,7.87
2022-10-10T03:20:46.508Z,7.79
2022-10-10T03:25:49.449Z,7.71
2022-10-10T03:30:53.804Z,7.48
2022-10-10T03:35:56.564Z,7.38
2022-10-10T03:40:59.134Z,7.25
2022-10-10T03:46:03.325Z,7.15
2022-10-10T03:51:06.440Z,7.12
2022-10-10T03:56:09.314Z,7.15
2022-10-10T04:01:14.323Z,7.15
2022-10-10T04:06:17.353Z,7.21
2022-10-10T04:11:20.103Z,7.27
2022-10-10T04:16:24.073Z,7.25
2022-10-10T04:21:26.906Z,7.40
2022-10-10T04:26:29.713Z,7.39
2022-10-10T04:31:33.923Z,7.32
2022-10-10T04:36:36.837Z,7.21
2022-10-10T04:41:39.620Z,7.12
2022-10-10T04:46:43.524Z,7.04
2022-10-10T04:51:46.277Z,6.94
2022-10-10T04:56:48.862Z,6.87
2022-10-10T05:01:53.060Z,6.81
2022-10-10T05:06:55.908Z,6.85
2022-10-10T05:11:58.711Z,6.91
2022-10-10T05:17:02.642Z,6.91
2022-10-10T05:22:05.469Z,6.95
2022-10-10T05:27:08.038Z,6.98
2022-10-10T05:32:12.227Z,6.88
2022-10-10T05:37:15.110Z,6.90
2022-10-10T05:42:17.933Z,6.82
2022-10-10T05:47:26.756Z,6.80
2022-10-10T05:52:31.137Z,6.84
2022-10-10T05:57:33.886Z,6.84
2022-10-10T06:02:38.091Z,6.89
2022-10-10T06:08:03.544Z,6.93
2022-10-10T06:13:03.837Z,7.35
2022-10-10T06:18:08.988Z,7.62
2022-10-10T06:23:11.760Z,7.82
2022-10-10T06:28:14.419Z,7.99
2022-10-10T06:33:19.658Z,8.28
2022-10-10T06:38:22.484Z,8.52
2022-10-10T06:43:25.061Z,8.77
2022-10-10T06:48:31.341Z,9.04
2022-10-10T06:53:34.668Z,9.36
2022-10-10T06:58:37.459Z,9.80
2022-10-10T07:03:41.497Z,10.02
2022-10-10T07:08:44.288Z,10.25
2022-10-10T07:13:47.176Z,10.65
2022-10-10T07:18:51.690Z,11.01
2022-10-10T07:23:54.582Z,11.21
2022-10-10T07:28:57.460Z,11.47
2022-10-10T07:34:01.764Z,11.71
2022-10-10T07:39:04.728Z,11.90
2022-10-10T07:44:07.481Z,12.26
2022-10-10T07:49:11.434Z,12.30
2022-10-10T07:54:14.257Z,12.57
2022-10-10T07:59:17.093Z,13.11
2022-10-10T08:04:21.635Z,13.25
2022-10-10T08:09:25.248Z,13.76
2022-10-10T08:14:28.218Z,13.77
2022-10-10T08:19:32.387Z,14.43
2022-10-10T08:24:35.249Z,14.58
2022-10-10T08:29:37.984Z,14.21
2022-10-10T08:34:42.115Z,14.65
2022-10-10T08:39:44.827Z,14.87
2022-10-10T08:44:52.824Z,15.10
2022-10-10T08:50:01.817Z,15.58
2022-10-10T08:55:13.010Z,15.90
2022-10-10T09:00:19.982Z,16.69
2022-10-10T09:05:37.034Z,17.04
2022-10-10T09:10:50.716Z,16.95
2022-10-10T09:15:58.911Z,17.11
2022-10-10T09:21:09.788Z,16.79
2022-10-10T09:26:14.640Z,16.55
2022-10-10T09:31:20.188Z,16.36
2022-10-10T09:36:28.130Z,16.65
2022-10-10T09:41:36.772Z,16.32
2022-10-10T09:46:39.831Z,15.80
2022-10-10T09:51:44.207Z,15.85
2022-10-10T09:56:51.644Z,15.83
2022-10-10T10:02:03.503Z,15.71
2022-10-10T10:07:18.825Z,16.45
2022-10-10T10:12:24.307Z,16.49
2022-10-10T10:17:27.338Z,16.55
2022-10-10T10:22:38.410Z,16.80
2022-10-10T10:27:41.201Z,17.33
2022-10-10T10:32:54.489Z,17.16
2022-10-10T10:38:19.385Z,18.21
2022-10-10T10:43:38.902Z,19.80
2022-10-10T10:48:46.003Z,19.50
2022-10-10T10:53:55.700Z,19.30
2022-10-10T11:05:20.137Z,21.05
2022-10-10T11:10:25.638Z,21.19
2022-10-10T11:16:01.788Z,21.76
2022-10-10T11:21:06.216Z,20.11
2022-10-10T11:26:17.734Z,19.92
2022-10-10T11:31:25.034Z,20.08
2022-10-10T11:36:31.270Z,19.95
2022-10-10T11:41:39.094Z,18.97
2022-10-10T11:46:47.155Z,19.13
2022-10-10T11:52:31.951Z,19.43
2022-10-10T11:57:37.906Z,19.71
2022-10-10T12:02:42.266Z,19.43
2022-10-10T12:08:00.616Z,19.83
2022-10-10T12:13:26.068Z,18.45
2022-10-10T12:18:39.092Z,18.65
2022-10-10T12:23:43.227Z,20.51
2022-10-10T12:29:05.574Z,20.90
2022-10-10T12:34:16.485Z,20.58
2022-10-10T12:39:37.747Z,19.81
2022-10-10T12:44:47.275Z,19.78
2022-10-10T12:49:50.736Z,20.65
2022-10-10T12:54:55.267Z,20.15
2022-10-10T13:00:04.707Z,19.35
2022-10-10T13:05:11.317Z,18.82
2022-10-10T13:10:23.485Z,17.78
2022-10-10T13:15:27.737Z,18.60
2022-10-10T13:20:35.621Z,18.47
2022-10-10T13:25:40.367Z,18.46
2022-10-10T13:30:45.396Z,18.84
2022-10-10T13:35:49.727Z,19.14
2022-10-10T13:40:53.439Z,19.48
2022-10-10T13:45:59.891Z,19.46
2022-10-10T13:51:05.951Z,19.17
2022-10-10T13:56:13.831Z,18.85
2022-10-10T14:01:31.738Z,18.84
2022-10-10T14:06:35.690Z,18.50
2022-10-10T14:11:38.458Z,17.84
2022-10-10T14:16:42.595Z,17.09
2022-10-10T14:21:45.309Z,17.29
2022-10-10T14:26:48.172Z,17.34
2022-10-10T14:31:52.301Z,17.08
2022-10-10T14:36:55.126Z,16.75
2022-10-10T14:41:58.580Z,16.78
2022-10-10T14:47:02.694Z,17.11
2022-10-10T14:52:05.549Z,16.75
2022-10-10T14:57:10.296Z,17.35
2022-10-10T15:02:14.684Z,17.19
2022-10-10T15:07:17.953Z,16.96
2022-10-10T15:12:20.708Z,16.45
2022-10-10T15:17:27.037Z,16.95
2022-10-10T15:22:30.256Z,16.43
2022-10-10T15:27:33.268Z,16.39
2022-10-10T15:32:40.619Z,16.36
2022-10-10T15:37:43.784Z,16.42
2022-10-10T15:42:46.512Z,16.50
2022-10-10T15:47:50.630Z,16.27
2022-10-10T15:52:53.345Z,16.03
2022-10-10T15:57:56.140Z,15.85
2022-10-10T16:03:00.262Z,16.03
2022-10-10T16:08:03.090Z,15.76
2022-10-10T16:13:06.025Z,15.13
2022-10-10T16:18:10.363Z,14.90
2022-10-10T16:23:13.193Z,14.62
2022-10-10T16:28:16.021Z,14.49
2022-10-10T16:33:20.121Z,14.63
2022-10-10T16:38:22.881Z,14.60
2022-10-10T16:43:25.704Z,14.54
2022-10-10T16:48:31.195Z,14.70
2022-10-10T16:53:34.414Z,13.55
2022-10-10T16:58:39.537Z,13.17
2022-10-10T17:03:44.049Z,13.04
2022-10-10T17:08:47.928Z,12.64
2022-10-10T17:13:51.851Z,12.88
2022-10-10T17:18:56.305Z,12.38
2022-10-10T17:23:59.296Z,12.25
2022-10-10T17:29:52.325Z,12.56
2022-10-10T17:34:56.559Z,12.30
2022-10-10T17:39:59.661Z,12.52
2022-10-10T17:45:02.715Z,12.37
2022-10-10T17:50:08.629Z,12.43
2022-10-10T17:55:11.372Z,12.19
2022-10-10T18:00:15.232Z,12.35
2022-10-10T18:05:19.385Z,12.25
2022-10-10T18:10:22.155Z,12.13
2022-10-10T18:15:25.033Z,11.74
2022-10-10T18:20:29.269Z,12.62
2022-10-10T18:25:32.353Z,12.67
2022-10-10T18:30:35.085Z,12.54
2022-10-10T18:35:42.477Z,12.38
2022-10-10T18:40:45.210Z,12.27
2022-10-10T18:45:49.659Z,12.15
2022-10-10T18:50:53.794Z,11.95
2022-10-10T18:55:57.232Z,11.88
2022-10-10T19:01:01.252Z,11.68
2022-10-10T19:06:07.586Z,11.99
2022-10-10T19:11:20.344Z,11.54
2022-10-10T19:16:23.130Z,11.78
2022-10-10T19:21:28.303Z,11.43
2022-10-10T19:26:33.356Z,11.44
2022-10-10T19:31:37.246Z,10.93
2022-10-10T19:36:42.318Z,11.12
2022-10-10T19:41:45.172Z,11.17
2022-10-10T19:46:47.765Z,10.83
2022-10-10T19:51:54.086Z,10.83
2022-10-10T19:56:57.116Z,10.69
2022-10-10T20:01:59.916Z,10.53
2022-10-10T20:07:04.080Z,10.60
2022-10-10T20:12:09.074Z,10.42
2022-10-10T20:17:12.722Z,10.29
2022-10-10T20:22:16.877Z,10.31
2022-10-10T20:27:19.649Z,10.28
2022-10-10T20:32:22.267Z,10.07
2022-10-10T20:37:26.344Z,10.03
2022-10-10T20:42:29.052Z,9.86
2022-10-10T20:47:31.640Z,9.84
2022-10-10T20:52:35.884Z,9.83
2022-10-10T20:57:38.641Z,9.77
2022-10-10T21:02:41.252Z,9.55
2022-10-10T21:07:45.965Z,9.44
2022-10-10T21:12:48.737Z,9.19
2022-10-10T21:17:51.338Z,9.36
2022-10-10T21:22:55.951Z,9.15
2022-10-10T21:27:58.743Z,9.13
2022-10-10T21:33:01.386Z,9.08
2022-10-10T21:38:05.533Z,8.77
2022-10-10T21:43:08.286Z,9.13
2022-10-10T21:48:11.748Z,9.01
2022-10-10T21:53:15.875Z,9.00
2022-10-10T21:58:18.747Z,8.53
2022-10-10T22:03:21.340Z,8.65
2022-10-10T22:08:25.439Z,8.64
2022-10-10T22:13:28.573Z,8.56
2022-10-10T22:18:32.128Z,8.44
2022-10-10T22:23:36.553Z,8.67
2022-10-10T22:28:39.871Z,8.49
2022-10-10T22:33:43.042Z,8.48
2022-10-10T22:38:47.173Z,8.51
2022-10-10T22:43:50.554Z,8.50
2022-10-10T22:48:53.782Z,8.54
2022-10-10T22:53:57.937Z,8.27
2022-10-10T22:59:00.683Z,8.17
2022-10-10T23:04:09.309Z,8.44
2022-10-10T23:09:14.212Z,8.40
2022-10-10T23:14:18.603Z,8.37
2022-10-10T23:19:21.330Z,8.40
2022-10-10T23:24:25.339Z,8.29
2022-10-10T23:29:28.082Z,8.32
2022-10-10T23:34:30.673Z,8.33
2022-10-10T23:39:34.812Z,8.26
2022-10-10T23:44:37.604Z,8.29
2022-10-10T23:49:40.174Z,8.33
2022-10-10T23:54:44.317Z,8.02
2022-10-10T23:59:47.112Z,8.18
